Time,TemperatureF,DewpointF,PressureIn,WindDirection,WindDirectionDegrees,WindSpeedMPH,WindSpeedGustMPH,Humidity,HourlyPrecipIn,Conditions,Clouds,dailyrainin,SolarRadiationWatts/m^2,SoftwareType,DateUTC
2013-03-29 00:04:00,51.9,47.0,30.11,SSE,148,2.0,3.0,83,0.00,,,0.02,0,weatherlink.com 1.10,2013-03-29 07:04:00,
2013-03-29 00:19:00,51.8,47.0,30.11,SSE,147,2.0,2.0,83,0.00,,,0.00,0,weatherlink.com 1.10,2013-03-29 07:19:00,
2013-03-29 00:34:00,51.9,47.0,30.11,SSE,147,0.0,2.0,83,0.00,,,0.00,0,weatherlink.com 1.10,2013-03-29 07:34:00,
2013-03-29 00:49:00,51.9,47.0,30.10,SE,146,0.0,1.0,83,0.00,,,0.00,0,weatherlink.com 1.10,2013-03-29 07:49:00,
2013-03-29 01:04:00,51.8,47.0,30.10,SE,146,0.0,0.0,83,0.00,,,0.00,0,weatherlink.com 1.10,2013-03-29 08:04:00,
2013-03-29 01:20:00,51.8,47.0,30.10,SE,146,2.0,3.0,83,0.00,,,0.00,0,weatherlink.com 1.10,2013-03-29 08:20:00,
2013-03-29 01:34:00,51.5,47.0,30.10,SSE,151,2.0,4.0,84,0.00,,,0.00,0,weatherlink.com 1.10,2013-03-29 08:34:00,
2013-03-29 01:49:00,51.3,47.0,30.09,SSE,151,2.0,3.0,84,0.00,,,0.00,0,weatherlink.com 1.10,2013-03-29 08:49:00,
2013-03-29 02:04:00,51.2,47.0,30.09,SSE,151,0.0,3.0,84,0.00,,,0.00,0,weatherlink.com 1.10,2013-03-29 09:04:00,
2013-03-29 02:19:00,51.1,46.0,30.09,SSE,151,2.0,3.0,84,0.00,,,0.00,0,weatherlink.com 1.10,2013-03-29 09:19:00,
2013-03-29 02:34:00,50.9,46.0,30.09,SSE,151,1.0,4.0,84,0.00,,,0.00,0,weatherlink.com 1.10,2013-03-29 09:34:00,
2013-03-29 02:49:00,50.8,46.0,30.09,SSE,151,0.0,1.0,84,0.00,,,0.00,0,weatherlink.com 1.10,2013-03-29 09:49:00,
2013-03-29 03:04:00,50.6,46.0,30.09,SSE,151,0.0,0.0,84,0.00,,,0.00,0,weatherlink.com 1.10,2013-03-29 10:04:00,
2013-03-29 03:19:00,50.7,46.0,30.09,SSE,151,0.0,1.0,85,0.00,,,0.00,0,weatherlink.com 1.10,2013-03-29 10:19:00,
2013-03-29 03:34:00,50.7,46.0,30.09,SSE,151,0.0,0.0,85,0.00,,,0.00,0,weatherlink.com 1.10,2013-03-29 10:34:00,
2013-03-29 03:50:00,50.6,46.0,30.08,SSE,151,0.0,1.0,85,0.00,,,0.00,0,weatherlink.com 1.10,2013-03-29 10:50:00,
2013-03-29 04:04:00,50.6,46.0,30.08,SSE,151,0.0,3.0,85,0.00,,,0.00,0,weatherlink.com 1.10,2013-03-29 11:04:00,
2013-03-29 04:19:00,50.4,46.0,30.07,SSE,151,0.0,2.0,85,0.00,,,0.00,0,weatherlink.com 1.10,2013-03-29 11:19:00,
2013-03-29 04:34:00,49.8,46.0,30.08,NE,49,2.0,3.0,85,0.00,,,0.00,0,weatherlink.com 1.10,2013-03-29 11:34:00,
2013-03-29 04:49:00,49.3,45.0,30.07,NE,49,2.0,3.0,85,0.00,,,0.00,0,weatherlink.com 1.10,2013-03-29 11:49:00,
2013-03-29 05:04:00,49.1,45.0,30.07,NNE,26,0.0,3.0,85,0.00,,,0.00,0,weatherlink.com 1.10,2013-03-29 12:04:00,
2013-03-29 05:19:00,49.1,45.0,30.07,NNE,26,0.0,3.0,85,0.00,,,0.00,0,weatherlink.com 1.10,2013-03-29 12:19:00,
2013-03-29 05:49:00,48.9,45.0,30.07,NNE,26,0.0,1.0,85,0.00,,,0.00,0,weatherlink.com 1.10,2013-03-29 12:49:00,
2013-03-29 06:04:00,49.0,45.0,30.07,NNE,22,0.0,3.0,85,0.00,,,0.00,0,weatherlink.com 1.10,2013-03-29 13:04:00,
2013-03-29 06:19:00,49.0,45.0,30.08,WNW,292,0.0,3.0,85,0.00,,,0.00,0,weatherlink.com 1.10,2013-03-29 13:19:00,
2013-03-29 06:34:00,48.7,44.0,30.09,WNW,300,0.0,3.0,85,0.00,,,0.00,0,weatherlink.com 1.10,2013-03-29 13:34:00,
2013-03-29 07:04:00,48.5,44.0,30.09,WNW,300,0.0,2.0,85,0.00,,,0.00,0,weatherlink.com 1.10,2013-03-29 14:04:00,
2013-03-29 07:19:00,48.4,44.0,30.09,NNW,329,2.0,4.0,85,0.00,,,0.00,12,weatherlink.com 1.10,2013-03-29 14:19:00,
2013-03-29 07:34:00,48.3,44.0,30.09,NNW,330,0.0,1.0,85,0.00,,,0.00,35,weatherlink.com 1.10,2013-03-29 14:34:00,
2013-03-29 07:49:00,48.5,44.0,30.09,NNW,332,0.0,4.0,85,0.00,,,0.00,102,weatherlink.com 1.10,2013-03-29 14:49:00,
2013-03-29 08:04:00,48.5,44.0,30.09,NNW,329,1.0,3.0,85,0.00,,,0.00,93,weatherlink.com 1.10,2013-03-29 15:04:00,
2013-03-29 08:19:00,48.5,44.0,30.10,NNW,327,0.0,3.0,85,0.00,,,0.00,93,weatherlink.com 1.10,2013-03-29 15:19:00,
2013-03-29 08:34:00,48.6,44.0,30.10,NNW,327,1.0,2.0,85,0.00,,,0.00,120,weatherlink.com 1.10,2013-03-29 15:34:00,
2013-03-29 08:49:00,49.2,45.0,30.10,WNW,292,2.0,3.0,85,0.00,,,0.00,246,weatherlink.com 1.10,2013-03-29 15:49:00,
2013-03-29 09:04:00,49.2,45.0,30.09,SW,234,2.0,4.0,85,0.00,,,0.00,290,weatherlink.com 1.10,2013-03-29 16:04:00,
2013-03-29 09:19:00,49.1,45.0,30.09,SW,236,4.0,5.0,85,0.00,,,0.00,427,weatherlink.com 1.10,2013-03-29 16:19:00,
2013-03-29 09:35:00,49.1,45.0,30.09,WSW,241,1.0,5.0,85,0.00,,,0.00,413,weatherlink.com 1.10,2013-03-29 16:35:00,
2013-03-29 09:50:00,49.4,45.0,30.09,WSW,246,3.0,5.0,85,0.00,,,0.00,520,weatherlink.com 1.10,2013-03-29 16:50:00,
2013-03-29 10:05:00,49.5,45.0,30.09,SW,219,1.0,5.0,85,0.00,,,0.00,390,weatherlink.com 1.10,2013-03-29 17:05:00,
2013-03-29 10:20:00,50.2,46.0,30.09,SW,227,3.0,6.0,85,0.00,,,0.00,619,weatherlink.com 1.10,2013-03-29 17:20:00,
2013-03-29 10:35:00,50.1,46.0,30.08,SW,231,2.0,6.0,84,0.00,,,0.00,615,weatherlink.com 1.10,2013-03-29 17:35:00,
2013-03-29 10:50:00,50.7,46.0,30.08,SW,221,5.0,5.0,84,0.00,,,0.00,703,weatherlink.com 1.10,2013-03-29 17:50:00,
2013-03-29 11:05:00,50.6,46.0,30.08,WSW,246,4.0,5.0,85,0.00,,,0.00,703,weatherlink.com 1.10,2013-03-29 18:05:00,
2013-03-29 11:20:00,51.0,47.0,30.08,SW,230,4.0,5.0,85,0.00,,,0.00,631,weatherlink.com 1.10,2013-03-29 18:20:00,
2013-03-29 11:35:00,51.5,47.0,30.08,SW,229,1.0,5.0,84,0.00,,,0.00,749,weatherlink.com 1.10,2013-03-29 18:35:00,
2013-03-29 11:50:00,52.7,48.0,30.08,SW,229,3.0,4.0,84,0.00,,,0.00,789,weatherlink.com 1.10,2013-03-29 18:50:00,
2013-03-29 12:05:00,52.3,47.0,30.08,WSW,238,4.0,6.0,83,0.00,,,0.00,807,weatherlink.com 1.10,2013-03-29 19:05:00,
2013-03-29 12:20:00,51.5,47.0,30.09,WSW,238,4.0,6.0,84,0.00,,,0.00,809,weatherlink.com 1.10,2013-03-29 19:20:00,
2013-03-29 12:35:00,52.4,48.0,30.09,SW,217,4.0,7.0,84,0.00,,,0.00,882,weatherlink.com 1.10,2013-03-29 19:35:00,
2013-03-29 12:50:00,53.1,48.0,30.08,SW,225,4.0,5.0,83,0.00,,,0.00,881,weatherlink.com 1.10,2013-03-29 19:50:00,
2013-03-29 13:05:00,53.8,49.0,30.08,WSW,240,3.0,5.0,84,0.00,,,0.00,970,weatherlink.com 1.10,2013-03-29 20:05:00,
2013-03-29 13:20:00,55.7,51.0,30.08,WSW,249,1.0,5.0,83,0.00,,,0.00,1102,weatherlink.com 1.10,2013-03-29 20:20:00,
2013-03-29 13:35:00,58.8,54.0,30.07,SSW,195,4.0,6.0,83,0.00,,,0.00,1039,weatherlink.com 1.10,2013-03-29 20:35:00,
2013-03-29 13:50:00,58.5,52.0,30.07,SW,219,1.0,5.0,80,0.00,,,0.00,904,weatherlink.com 1.10,2013-03-29 20:50:00,
2013-03-29 14:05:00,60.7,54.0,30.06,SSW,203,3.0,6.0,79,0.00,,,0.00,888,weatherlink.com 1.10,2013-03-29 21:05:00,
2013-03-29 14:21:00,61.9,54.0,30.06,SSW,198,2.0,5.0,74,0.00,,,0.00,563,weatherlink.com 1.10,2013-03-29 21:21:00,
2013-03-29 14:35:00,59.9,52.0,30.06,SW,223,2.0,4.0,75,0.00,,,0.00,612,weatherlink.com 1.10,2013-03-29 21:35:00,
2013-03-29 14:50:00,59.2,52.0,30.06,SW,223,4.0,6.0,77,0.00,,,0.00,826,weatherlink.com 1.10,2013-03-29 21:50:00,
2013-03-29 15:05:00,58.7,52.0,30.06,SW,234,3.0,6.0,79,0.00,,,0.00,775,weatherlink.com 1.10,2013-03-29 22:05:00,
2013-03-29 15:20:00,57.8,51.0,30.06,SW,221,4.0,7.0,79,0.00,,,0.00,745,weatherlink.com 1.10,2013-03-29 22:20:00,
2013-03-29 15:35:00,60.8,54.0,30.06,SSW,208,5.0,6.0,78,0.00,,,0.00,596,weatherlink.com 1.10,2013-03-29 22:35:00,
2013-03-29 15:50:00,60.0,52.0,30.06,SSW,192,3.0,6.0,76,0.00,,,0.00,290,weatherlink.com 1.10,2013-03-29 22:50:00,
2013-03-29 16:05:00,58.1,51.0,30.07,SSW,207,2.0,7.0,77,0.00,,,0.00,362,weatherlink.com 1.10,2013-03-29 23:05:00,
2013-03-29 16:20:00,57.2,51.0,30.07,SSW,202,0.0,5.0,80,0.00,,,0.00,367,weatherlink.com 1.10,2013-03-29 23:20:00,
2013-03-29 16:35:00,58.2,52.0,30.07,SSW,193,3.0,6.0,79,0.00,,,0.00,554,weatherlink.com 1.10,2013-03-29 23:35:00,
2013-03-29 16:50:00,58.7,52.0,30.06,SSW,204,0.0,4.0,77,0.00,,,0.00,334,weatherlink.com 1.10,2013-03-29 23:50:00,
2013-03-29 17:06:00,58.7,52.0,30.05,SSW,194,4.0,4.0,79,0.00,,,0.00,519,weatherlink.com 1.10,2013-03-30 00:06:00,
2013-03-29 17:21:00,59.1,51.0,30.05,SW,227,1.0,4.0,74,0.00,,,0.00,225,weatherlink.com 1.10,2013-03-30 00:21:00,
2013-03-29 17:36:00,55.6,50.0,30.04,SW,230,3.0,4.0,80,0.00,,,0.00,403,weatherlink.com 1.10,2013-03-30 00:36:00,
2013-03-29 17:51:00,53.8,48.0,30.05,WNW,283,1.0,5.0,82,0.00,,,0.00,162,weatherlink.com 1.10,2013-03-30 00:51:00,
2013-03-29 18:06:00,52.8,47.0,30.05,WSW,240,0.0,4.0,82,0.00,,,0.00,105,weatherlink.com 1.10,2013-03-30 01:06:00,
2013-03-29 18:21:00,52.8,48.0,30.05,WSW,239,0.0,2.0,83,0.00,,,0.00,107,weatherlink.com 1.10,2013-03-30 01:21:00,
2013-03-29 18:36:00,52.6,48.0,30.04,WSW,239,0.0,1.0,83,0.00,,,0.00,63,weatherlink.com 1.10,2013-03-30 01:36:00,
2013-03-29 18:51:00,52.7,48.0,30.04,WSW,239,0.0,1.0,83,0.00,,,0.00,53,weatherlink.com 1.10,2013-03-30 01:51:00,
2013-03-29 19:06:00,53.3,48.0,30.03,WSW,239,0.0,0.0,83,0.00,,,0.00,39,weatherlink.com 1.10,2013-03-30 02:06:00,
2013-03-29 19:21:00,53.4,48.0,30.03,WSW,239,0.0,1.0,83,0.00,,,0.00,7,weatherlink.com 1.10,2013-03-30 02:21:00,
2013-03-29 19:36:00,54.1,49.0,30.02,NNE,25,3.0,4.0,83,0.00,,,0.00,0,weatherlink.com 1.10,2013-03-30 02:36:00,
2013-03-29 20:06:00,53.8,49.0,30.02,NNE,25,2.0,3.0,83,0.00,,,0.00,0,weatherlink.com 1.10,2013-03-30 03:06:00,
2013-03-29 21:06:00,52.8,48.0,30.04,NNE,28,5.0,5.0,83,0.00,,,0.00,0,weatherlink.com 1.10,2013-03-30 04:06:00,
2013-03-29 21:36:00,54.0,49.0,30.05,NE,53,2.0,4.0,83,0.00,,,0.00,0,weatherlink.com 1.10,2013-03-30 04:36:00,
2013-03-29 22:06:00,53.9,49.0,30.05,East,84,2.0,2.0,83,0.00,,,0.00,0,weatherlink.com 1.10,2013-03-30 05:06:00,
2013-03-29 22:21:00,52.9,48.0,30.06,SE,132,4.0,5.0,83,0.00,,,0.00,0,weatherlink.com 1.10,2013-03-30 05:21:00,
2013-03-29 23:06:00,51.3,47.0,30.07,NE,43,0.0,5.0,84,0.00,,,0.00,0,weatherlink.com 1.10,2013-03-30 06:06:00,
2013-03-29 23:21:00,50.9,46.0,30.08,ENE,63,0.0,4.0,84,0.00,,,0.00,0,weatherlink.com 1.10,2013-03-30 06:21:00,
2013-03-29 23:36:00,50.8,46.0,30.08,SE,128,3.0,5.0,84,0.00,,,0.00,0,weatherlink.com 1.10,2013-03-30 06:36:00,
2013-03-29 23:51:00,51.3,47.0,30.09,SSE,161,0.0,4.0,84,0.00,,,0.00,0,weatherlink.com 1.10,2013-03-30 06:51:00,